sensor_id;sensor_type;location;lat;lon;timestamp;P1;durP1;ratioP1;P2;durP2;ratioP2
71046;SDS011;58703;48.978;8.982;2023-02-28T00:01:19;6.70;;;3.22;;
71046;SDS011;58703;48.978;8.982;2023-02-28T00:03:44;5.50;;;2.30;;
71046;SDS011;58703;48.978;8.982;2023-02-28T00:06:10;4.00;;;2.37;;
71046;SDS011;58703;48.978;8.982;2023-02-28T00:08:36;4.88;;;2.78;;
71046;SDS011;58703;48.978;8.982;2023-02-28T00:11:02;5.00;;;2.25;;
71046;SDS011;58703;48.978;8.982;2023-02-28T00:13:29;4.82;;;2.42;;
71046;SDS011;58703;48.978;8.982;2023-02-28T00:15:59;3.53;;;2.30;;
71046;SDS011;58703;48.978;8.982;2023-02-28T00:18:28;5.82;;;2.60;;
71046;SDS011;58703;48.978;8.982;2023-02-28T00:20:53;3.87;;;2.27;;
71046;SDS011;58703;48.978;8.982;2023-02-28T00:23:19;4.13;;;2.05;;
71046;SDS011;58703;48.978;8.982;2023-02-28T00:25:44;2.50;;;1.73;;
71046;SDS011;58703;48.978;8.982;2023-02-28T00:28:10;3.77;;;1.87;;
71046;SDS011;58703;48.978;8.982;2023-02-28T00:30:35;1.97;;;1.70;;
71046;SDS011;58703;48.978;8.982;2023-02-28T00:33:01;7.55;;;2.58;;
71046;SDS011;58703;48.978;8.982;2023-02-28T00:35:26;4.57;;;2.43;;
71046;SDS011;58703;48.978;8.982;2023-02-28T00:37:52;3.37;;;2.00;;
71046;SDS011;58703;48.978;8.982;2023-02-28T00:40:17;2.45;;;1.90;;
71046;SDS011;58703;48.978;8.982;2023-02-28T00:42:43;2.88;;;1.85;;
71046;SDS011;58703;48.978;8.982;2023-02-28T00:45:08;2.60;;;1.60;;
71046;SDS011;58703;48.978;8.982;2023-02-28T00:47:34;2.85;;;2.08;;
71046;SDS011;58703;48.978;8.982;2023-02-28T00:50:00;2.53;;;2.03;;
71046;SDS011;58703;48.978;8.982;2023-02-28T00:52:25;4.50;;;2.70;;
71046;SDS011;58703;48.978;8.982;2023-02-28T00:54:51;3.00;;;2.20;;
71046;SDS011;58703;48.978;8.982;2023-02-28T00:57:17;4.03;;;2.53;;
71046;SDS011;58703;48.978;8.982;2023-02-28T00:59:42;2.17;;;1.47;;
71046;SDS011;58703;48.978;8.982;2023-02-28T01:02:08;4.80;;;2.03;;
71046;SDS011;58703;48.978;8.982;2023-02-28T01:04:33;2.20;;;1.57;;
71046;SDS011;58703;48.978;8.982;2023-02-28T01:06:59;3.15;;;1.48;;
71046;SDS011;58703;48.978;8.982;2023-02-28T01:09:24;2.07;;;1.30;;
71046;SDS011;58703;48.978;8.982;2023-02-28T01:11:50;3.97;;;1.97;;
71046;SDS011;58703;48.978;8.982;2023-02-28T01:14:16;2.90;;;2.20;;
71046;SDS011;58703;48.978;8.982;2023-02-28T01:16:42;3.08;;;1.98;;
71046;SDS011;58703;48.978;8.982;2023-02-28T01:19:08;2.88;;;1.50;;
71046;SDS011;58703;48.978;8.982;2023-02-28T01:21:34;3.13;;;2.30;;
71046;SDS011;58703;48.978;8.982;2023-02-28T01:24:00;1.13;;;1.07;;
71046;SDS011;58703;48.978;8.982;2023-02-28T01:26:25;3.67;;;2.70;;
71046;SDS011;58703;48.978;8.982;2023-02-28T01:28:51;3.38;;;1.95;;
71046;SDS011;58703;48.978;8.982;2023-02-28T01:31:18;2.90;;;2.22;;
71046;SDS011;58703;48.978;8.982;2023-02-28T01:33:45;2.53;;;1.90;;
71046;SDS011;58703;48.978;8.982;2023-02-28T01:36:11;4.28;;;2.63;;
71046;SDS011;58703;48.978;8.982;2023-02-28T01:38:42;4.03;;;2.20;;
71046;SDS011;58703;48.978;8.982;2023-02-28T01:41:08;3.33;;;2.22;;
71046;SDS011;58703;48.978;8.982;2023-02-28T01:46:09;3.47;;;2.50;;
71046;SDS011;58703;48.978;8.982;2023-02-28T01:48:36;3.58;;;1.98;;
71046;SDS011;58703;48.978;8.982;2023-02-28T01:51:07;2.60;;;1.80;;
71046;SDS011;58703;48.978;8.982;2023-02-28T01:53:37;4.22;;;2.67;;
71046;SDS011;58703;48.978;8.982;2023-02-28T01:56:07;3.50;;;2.47;;
71046;SDS011;58703;48.978;8.982;2023-02-28T01:58:37;4.05;;;2.50;;
71046;SDS011;58703;48.978;8.982;2023-02-28T02:01:03;2.75;;;1.95;;
71046;SDS011;58703;48.978;8.982;2023-02-28T02:03:29;5.57;;;2.97;;
71046;SDS011;58703;48.978;8.982;2023-02-28T02:05:56;4.20;;;2.83;;
71046;SDS011;58703;48.978;8.982;2023-02-28T02:08:25;2.87;;;1.90;;
71046;SDS011;58703;48.978;8.982;2023-02-28T02:10:59;2.78;;;2.20;;
71046;SDS011;58703;48.978;8.982;2023-02-28T02:22:07;3.80;;;2.53;;
71046;SDS011;58703;48.978;8.982;2023-02-28T02:30:14;3.53;;;2.40;;
71046;SDS011;58703;48.978;8.982;2023-02-28T02:38:43;2.90;;;1.98;;
71046;SDS011;58703;48.978;8.982;2023-02-28T02:46:32;2.58;;;1.92;;
71046;SDS011;58703;48.978;8.982;2023-02-28T02:49:00;2.60;;;2.03;;
71046;SDS011;58703;48.978;8.982;2023-02-28T02:51:31;2.35;;;2.13;;
71046;SDS011;58703;48.978;8.982;2023-02-28T02:54:05;3.47;;;2.85;;
71046;SDS011;58703;48.978;8.982;2023-02-28T02:56:36;3.05;;;2.65;;
71046;SDS011;58703;48.978;8.982;2023-02-28T02:59:08;2.80;;;1.85;;
71046;SDS011;58703;48.978;8.982;2023-02-28T03:01:36;3.27;;;2.50;;
71046;SDS011;58703;48.978;8.982;2023-02-28T03:04:04;5.88;;;3.60;;
71046;SDS011;58703;48.978;8.982;2023-02-28T03:06:32;4.10;;;3.20;;
71046;SDS011;58703;48.978;8.982;2023-02-28T03:08:59;3.50;;;2.42;;
71046;SDS011;58703;48.978;8.982;2023-02-28T03:11:25;3.93;;;2.67;;
71046;SDS011;58703;48.978;8.982;2023-02-28T03:25:04;2.75;;;2.03;;
71046;SDS011;58703;48.978;8.982;2023-02-28T03:30:32;6.45;;;3.00;;
71046;SDS011;58703;48.978;8.982;2023-02-28T03:35:35;5.88;;;3.88;;
71046;SDS011;58703;48.978;8.982;2023-02-28T03:38:08;6.30;;;3.20;;
71046;SDS011;58703;48.978;8.982;2023-02-28T03:40:39;8.98;;;5.05;;
71046;SDS011;58703;48.978;8.982;2023-02-28T03:43:10;4.53;;;2.40;;
71046;SDS011;58703;48.978;8.982;2023-02-28T03:45:39;3.28;;;2.38;;
71046;SDS011;58703;48.978;8.982;2023-02-28T03:50:45;5.35;;;2.47;;
71046;SDS011;58703;48.978;8.982;2023-02-28T03:53:31;5.03;;;2.88;;
71046;SDS011;58703;48.978;8.982;2023-02-28T03:56:08;3.40;;;2.30;;
71046;SDS011;58703;48.978;8.982;2023-02-28T03:59:01;2.33;;;1.77;;
71046;SDS011;58703;48.978;8.982;2023-02-28T04:01:44;2.97;;;1.95;;
71046;SDS011;58703;48.978;8.982;2023-02-28T04:04:12;2.53;;;2.10;;
71046;SDS011;58703;48.978;8.982;2023-02-28T04:06:39;4.80;;;2.97;;
71046;SDS011;58703;48.978;8.982;2023-02-28T04:09:06;3.10;;;1.90;;
71046;SDS011;58703;48.978;8.982;2023-02-28T04:11:34;2.60;;;2.15;;
71046;SDS011;58703;48.978;8.982;2023-02-28T04:14:16;3.88;;;2.22;;
71046;SDS011;58703;48.978;8.982;2023-02-28T04:16:42;6.43;;;3.28;;
71046;SDS011;58703;48.978;8.982;2023-02-28T04:19:09;4.97;;;3.03;;
71046;SDS011;58703;48.978;8.982;2023-02-28T04:21:43;5.10;;;2.47;;
71046;SDS011;58703;48.978;8.982;2023-02-28T04:24:11;2.88;;;2.00;;
71046;SDS011;58703;48.978;8.982;2023-02-28T04:26:42;4.13;;;2.73;;
71046;SDS011;58703;48.978;8.982;2023-02-28T04:29:10;4.50;;;2.15;;
71046;SDS011;58703;48.978;8.982;2023-02-28T04:31:38;6.55;;;3.20;;
71046;SDS011;58703;48.978;8.982;2023-02-28T04:34:04;2.35;;;1.77;;
71046;SDS011;58703;48.978;8.982;2023-02-28T04:36:30;4.20;;;3.15;;
71046;SDS011;58703;48.978;8.982;2023-02-28T04:38:56;3.60;;;2.80;;
71046;SDS011;58703;48.978;8.982;2023-02-28T04:41:22;5.80;;;2.50;;
71046;SDS011;58703;48.978;8.982;2023-02-28T04:43:49;5.38;;;3.17;;
71046;SDS011;58703;48.978;8.982;2023-02-28T04:46:16;4.50;;;2.60;;
71046;SDS011;58703;48.978;8.982;2023-02-28T04:48:42;5.32;;;3.10;;
71046;SDS011;58703;48.978;8.982;2023-02-28T04:51:09;4.38;;;3.00;;
71046;SDS011;58703;48.978;8.982;2023-02-28T04:53:37;4.55;;;3.25;;
71046;SDS011;58703;48.978;8.982;2023-02-28T04:56:04;4.50;;;3.17;;
71046;SDS011;58703;48.978;8.982;2023-02-28T04:58:31;7.45;;;3.47;;
71046;SDS011;58703;48.978;8.982;2023-02-28T05:01:04;5.57;;;3.53;;
71046;SDS011;58703;48.978;8.982;2023-02-28T05:03:38;3.85;;;2.80;;
71046;SDS011;58703;48.978;8.982;2023-02-28T05:06:06;3.33;;;2.42;;
71046;SDS011;58703;48.978;8.982;2023-02-28T05:08:32;5.37;;;2.77;;
71046;SDS011;58703;48.978;8.982;2023-02-28T05:10:58;7.32;;;4.22;;
71046;SDS011;58703;48.978;8.982;2023-02-28T05:13:26;4.07;;;2.13;;
71046;SDS011;58703;48.978;8.982;2023-02-28T05:15:52;7.78;;;2.97;;
71046;SDS011;58703;48.978;8.982;2023-02-28T05:18:18;3.00;;;2.43;;
71046;SDS011;58703;48.978;8.982;2023-02-28T05:20:43;5.37;;;3.27;;
71046;SDS011;58703;48.978;8.982;2023-02-28T05:23:13;10.05;;;3.40;;
71046;SDS011;58703;48.978;8.982;2023-02-28T05:25:40;6.28;;;3.88;;
71046;SDS011;58703;48.978;8.982;2023-02-28T05:28:06;8.27;;;3.20;;
71046;SDS011;58703;48.978;8.982;2023-02-28T05:30:32;4.25;;;3.15;;
71046;SDS011;58703;48.978;8.982;2023-02-28T05:32:58;4.28;;;2.38;;
71046;SDS011;58703;48.978;8.982;2023-02-28T05:35:24;6.15;;;2.85;;
71046;SDS011;58703;48.978;8.982;2023-02-28T05:37:50;4.63;;;3.08;;
71046;SDS011;58703;48.978;8.982;2023-02-28T05:40:17;3.83;;;2.73;;
71046;SDS011;58703;48.978;8.982;2023-02-28T05:42:44;4.93;;;3.78;;
71046;SDS011;58703;48.978;8.982;2023-02-28T05:45:10;3.57;;;2.20;;
71046;SDS011;58703;48.978;8.982;2023-02-28T05:47:35;3.70;;;3.23;;
71046;SDS011;58703;48.978;8.982;2023-02-28T05:50:01;7.47;;;3.70;;
71046;SDS011;58703;48.978;8.982;2023-02-28T05:52:28;6.43;;;3.33;;
71046;SDS011;58703;48.978;8.982;2023-02-28T05:54:55;10.05;;;6.95;;
71046;SDS011;58703;48.978;8.982;2023-02-28T05:57:21;5.40;;;3.33;;
71046;SDS011;58703;48.978;8.982;2023-02-28T05:59:46;3.97;;;2.53;;
71046;SDS011;58703;48.978;8.982;2023-02-28T06:02:13;9.07;;;5.47;;
71046;SDS011;58703;48.978;8.982;2023-02-28T06:04:40;8.07;;;5.05;;
71046;SDS011;58703;48.978;8.982;2023-02-28T06:07:06;2.67;;;2.03;;
71046;SDS011;58703;48.978;8.982;2023-02-28T06:09:32;4.97;;;2.65;;
71046;SDS011;58703;48.978;8.982;2023-02-28T06:11:58;5.50;;;4.00;;
71046;SDS011;58703;48.978;8.982;2023-02-28T06:14:25;7.93;;;3.58;;
71046;SDS011;58703;48.978;8.982;2023-02-28T06:16:51;4.50;;;2.85;;
71046;SDS011;58703;48.978;8.982;2023-02-28T06:19:16;3.17;;;2.30;;
71046;SDS011;58703;48.978;8.982;2023-02-28T06:21:42;4.53;;;2.67;;
71046;SDS011;58703;48.978;8.982;2023-02-28T06:24:08;5.73;;;2.63;;
71046;SDS011;58703;48.978;8.982;2023-02-28T06:26:34;5.57;;;3.50;;
71046;SDS011;58703;48.978;8.982;2023-02-28T06:29:00;6.72;;;3.72;;
71046;SDS011;58703;48.978;8.982;2023-02-28T06:31:26;4.73;;;3.00;;
71046;SDS011;58703;48.978;8.982;2023-02-28T06:33:54;6.35;;;2.97;;
71046;SDS011;58703;48.978;8.982;2023-02-28T06:36:20;5.05;;;2.47;;
71046;SDS011;58703;48.978;8.982;2023-02-28T06:38:46;4.40;;;3.17;;
71046;SDS011;58703;48.978;8.982;2023-02-28T06:41:16;5.78;;;3.42;;
71046;SDS011;58703;48.978;8.982;2023-02-28T06:43:42;6.82;;;3.60;;
71046;SDS011;58703;48.978;8.982;2023-02-28T06:46:10;4.53;;;3.13;;
71046;SDS011;58703;48.978;8.982;2023-02-28T06:48:38;6.72;;;3.78;;
71046;SDS011;58703;48.978;8.982;2023-02-28T06:51:05;3.97;;;2.78;;
71046;SDS011;58703;48.978;8.982;2023-02-28T06:53:36;6.40;;;3.75;;
71046;SDS011;58703;48.978;8.982;2023-02-28T06:56:08;4.85;;;3.00;;
71046;SDS011;58703;48.978;8.982;2023-02-28T06:58:36;6.30;;;3.53;;
71046;SDS011;58703;48.978;8.982;2023-02-28T07:01:03;3.35;;;2.83;;
71046;SDS011;58703;48.978;8.982;2023-02-28T07:03:29;5.82;;;3.67;;
71046;SDS011;58703;48.978;8.982;2023-02-28T07:05:55;5.20;;;3.75;;
71046;SDS011;58703;48.978;8.982;2023-02-28T07:08:22;5.50;;;2.78;;
71046;SDS011;58703;48.978;8.982;2023-02-28T07:10:51;6.32;;;3.78;;
71046;SDS011;58703;48.978;8.982;2023-02-28T07:13:20;4.07;;;2.40;;
71046;SDS011;58703;48.978;8.982;2023-02-28T07:16:00;4.85;;;3.08;;
71046;SDS011;58703;48.978;8.982;2023-02-28T07:18:27;6.10;;;3.67;;
71046;SDS011;58703;48.978;8.982;2023-02-28T07:20:53;8.63;;;3.60;;
71046;SDS011;58703;48.978;8.982;2023-02-28T07:23:19;6.15;;;3.58;;
71046;SDS011;58703;48.978;8.982;2023-02-28T07:25:45;6.35;;;3.25;;
71046;SDS011;58703;48.978;8.982;2023-02-28T07:28:11;4.23;;;3.33;;
71046;SDS011;58703;48.978;8.982;2023-02-28T07:30:37;6.78;;;3.95;;
71046;SDS011;58703;48.978;8.982;2023-02-28T07:33:03;6.90;;;3.85;;
71046;SDS011;58703;48.978;8.982;2023-02-28T07:35:29;6.50;;;2.83;;
71046;SDS011;58703;48.978;8.982;2023-02-28T07:37:55;5.30;;;2.35;;
71046;SDS011;58703;48.978;8.982;2023-02-28T07:40:22;5.97;;;3.30;;
71046;SDS011;58703;48.978;8.982;2023-02-28T07:42:48;10.33;;;3.50;;
71046;SDS011;58703;48.978;8.982;2023-02-28T07:45:14;5.85;;;3.67;;
71046;SDS011;58703;48.978;8.982;2023-02-28T07:47:40;6.75;;;3.38;;
71046;SDS011;58703;48.978;8.982;2023-02-28T07:50:07;4.97;;;3.47;;
71046;SDS011;58703;48.978;8.982;2023-02-28T07:52:36;6.18;;;3.47;;
71046;SDS011;58703;48.978;8.982;2023-02-28T07:55:02;5.87;;;4.17;;
71046;SDS011;58703;48.978;8.982;2023-02-28T07:57:27;7.30;;;4.53;;
71046;SDS011;58703;48.978;8.982;2023-02-28T07:59:53;9.93;;;4.50;;
71046;SDS011;58703;48.978;8.982;2023-02-28T08:02:18;7.27;;;3.10;;
71046;SDS011;58703;48.978;8.982;2023-02-28T08:04:44;6.70;;;4.07;;
71046;SDS011;58703;48.978;8.982;2023-02-28T08:07:12;5.57;;;4.05;;
71046;SDS011;58703;48.978;8.982;2023-02-28T08:09:38;7.53;;;4.53;;
71046;SDS011;58703;48.978;8.982;2023-02-28T08:12:05;7.87;;;4.40;;
71046;SDS011;58703;48.978;8.982;2023-02-28T08:14:32;7.00;;;3.90;;
71046;SDS011;58703;48.978;8.982;2023-02-28T08:16:58;6.80;;;4.32;;
71046;SDS011;58703;48.978;8.982;2023-02-28T08:19:23;6.30;;;4.13;;
71046;SDS011;58703;48.978;8.982;2023-02-28T08:21:49;6.87;;;3.53;;
71046;SDS011;58703;48.978;8.982;2023-02-28T08:24:15;10.02;;;5.97;;
71046;SDS011;58703;48.978;8.982;2023-02-28T08:26:40;11.07;;;4.40;;
71046;SDS011;58703;48.978;8.982;2023-02-28T08:29:06;9.60;;;4.60;;
71046;SDS011;58703;48.978;8.982;2023-02-28T08:31:31;7.45;;;4.50;;
71046;SDS011;58703;48.978;8.982;2023-02-28T08:33:57;7.73;;;4.77;;
71046;SDS011;58703;48.978;8.982;2023-02-28T08:36:24;7.40;;;5.22;;
71046;SDS011;58703;48.978;8.982;2023-02-28T08:38:51;8.18;;;4.28;;
71046;SDS011;58703;48.978;8.982;2023-02-28T08:41:16;6.57;;;3.53;;
71046;SDS011;58703;48.978;8.982;2023-02-28T08:43:42;6.15;;;4.55;;
71046;SDS011;58703;48.978;8.982;2023-02-28T08:46:10;5.90;;;4.07;;
71046;SDS011;58703;48.978;8.982;2023-02-28T08:48:37;9.02;;;4.97;;
71046;SDS011;58703;48.978;8.982;2023-02-28T08:51:07;8.40;;;5.30;;
71046;SDS011;58703;48.978;8.982;2023-02-28T08:53:35;5.38;;;3.88;;
71046;SDS011;58703;48.978;8.982;2023-02-28T08:56:03;5.72;;;4.53;;
71046;SDS011;58703;48.978;8.982;2023-02-28T08:58:33;7.30;;;4.60;;
71046;SDS011;58703;48.978;8.982;2023-02-28T09:00:59;10.43;;;5.68;;
71046;SDS011;58703;48.978;8.982;2023-02-28T09:03:25;7.22;;;4.13;;
71046;SDS011;58703;48.978;8.982;2023-02-28T09:05:59;8.27;;;4.75;;
71046;SDS011;58703;48.978;8.982;2023-02-28T09:08:26;6.78;;;3.80;;
71046;SDS011;58703;48.978;8.982;2023-02-28T09:10:53;9.15;;;5.35;;
71046;SDS011;58703;48.978;8.982;2023-02-28T09:13:20;6.82;;;4.53;;
71046;SDS011;58703;48.978;8.982;2023-02-28T09:15:46;9.50;;;5.40;;
71046;SDS011;58703;48.978;8.982;2023-02-28T09:18:12;3.67;;;2.27;;
71046;SDS011;58703;48.978;8.982;2023-02-28T09:20:38;6.25;;;4.03;;
71046;SDS011;58703;48.978;8.982;2023-02-28T09:23:05;7.60;;;4.57;;
71046;SDS011;58703;48.978;8.982;2023-02-28T09:25:31;7.87;;;5.20;;
71046;SDS011;58703;48.978;8.982;2023-02-28T09:27:57;6.40;;;4.10;;
71046;SDS011;58703;48.978;8.982;2023-02-28T09:30:23;8.93;;;5.60;;
71046;SDS011;58703;48.978;8.982;2023-02-28T09:32:48;8.25;;;4.88;;
71046;SDS011;58703;48.978;8.982;2023-02-28T09:35:23;5.07;;;3.77;;
71046;SDS011;58703;48.978;8.982;2023-02-28T09:37:50;6.43;;;4.57;;
71046;SDS011;58703;48.978;8.982;2023-02-28T09:40:20;7.00;;;5.13;;
71046;SDS011;58703;48.978;8.982;2023-02-28T09:42:48;6.32;;;3.85;;
71046;SDS011;58703;48.978;8.982;2023-02-28T09:45:19;8.13;;;5.47;;
71046;SDS011;58703;48.978;8.982;2023-02-28T09:47:50;8.80;;;4.90;;
71046;SDS011;58703;48.978;8.982;2023-02-28T09:53:04;7.65;;;4.55;;
71046;SDS011;58703;48.978;8.982;2023-02-28T09:55:45;7.20;;;4.55;;
71046;SDS011;58703;48.978;8.982;2023-02-28T10:01:01;6.47;;;3.70;;
71046;SDS011;58703;48.978;8.982;2023-02-28T10:06:20;9.02;;;5.43;;
71046;SDS011;58703;48.978;8.982;2023-02-28T10:11:16;8.60;;;5.70;;
71046;SDS011;58703;48.978;8.982;2023-02-28T10:16:34;7.65;;;5.40;;
71046;SDS011;58703;48.978;8.982;2023-02-28T10:19:11;10.47;;;5.80;;
71046;SDS011;58703;48.978;8.982;2023-02-28T10:21:46;8.48;;;4.57;;
71046;SDS011;58703;48.978;8.982;2023-02-28T10:24:20;8.77;;;5.00;;
71046;SDS011;58703;48.978;8.982;2023-02-28T10:27:05;8.63;;;5.45;;
71046;SDS011;58703;48.978;8.982;2023-02-28T10:29:38;6.38;;;4.75;;
71046;SDS011;58703;48.978;8.982;2023-02-28T10:32:08;6.73;;;4.57;;
71046;SDS011;58703;48.978;8.982;2023-02-28T10:34:35;8.00;;;5.20;;
71046;SDS011;58703;48.978;8.982;2023-02-28T10:37:01;9.17;;;5.43;;
71046;SDS011;58703;48.978;8.982;2023-02-28T10:42:03;6.75;;;4.72;;
71046;SDS011;58703;48.978;8.982;2023-02-28T10:44:28;9.20;;;5.40;;
71046;SDS011;58703;48.978;8.982;2023-02-28T10:46:54;7.00;;;4.37;;
71046;SDS011;58703;48.978;8.982;2023-02-28T10:49:28;5.18;;;3.80;;
71046;SDS011;58703;48.978;8.982;2023-02-28T10:51:55;5.30;;;4.50;;
71046;SDS011;58703;48.978;8.982;2023-02-28T10:54:44;8.23;;;4.72;;
71046;SDS011;58703;48.978;8.982;2023-02-28T10:57:17;10.20;;;4.77;;
71046;SDS011;58703;48.978;8.982;2023-02-28T10:59:53;10.00;;;5.63;;
71046;SDS011;58703;48.978;8.982;2023-02-28T11:02:37;7.53;;;5.18;;
71046;SDS011;58703;48.978;8.982;2023-02-28T11:05:22;10.50;;;4.70;;
71046;SDS011;58703;48.978;8.982;2023-02-28T11:07:54;6.57;;;3.60;;
71046;SDS011;58703;48.978;8.982;2023-02-28T11:10:43;3.85;;;3.13;;
71046;SDS011;58703;48.978;8.982;2023-02-28T11:13:17;9.05;;;4.40;;
71046;SDS011;58703;48.978;8.982;2023-02-28T11:15:50;9.60;;;5.93;;
71046;SDS011;58703;48.978;8.982;2023-02-28T11:18:23;8.45;;;5.18;;
71046;SDS011;58703;48.978;8.982;2023-02-28T11:20:54;7.63;;;5.30;;
71046;SDS011;58703;48.978;8.982;2023-02-28T11:23:24;9.73;;;5.78;;
71046;SDS011;58703;48.978;8.982;2023-02-28T11:25:53;7.20;;;4.70;;
71046;SDS011;58703;48.978;8.982;2023-02-28T11:28:27;6.88;;;4.18;;
71046;SDS011;58703;48.978;8.982;2023-02-28T11:33:54;5.73;;;3.57;;
71046;SDS011;58703;48.978;8.982;2023-02-28T11:38:51;10.75;;;6.78;;
71046;SDS011;58703;48.978;8.982;2023-02-28T11:46:58;8.10;;;5.43;;
71046;SDS011;58703;48.978;8.982;2023-02-28T11:57:56;7.35;;;5.30;;
71046;SDS011;58703;48.978;8.982;2023-02-28T12:00:39;8.97;;;4.87;;
71046;SDS011;58703;48.978;8.982;2023-02-28T12:03:21;5.78;;;4.30;;
71046;SDS011;58703;48.978;8.982;2023-02-28T12:06:06;6.60;;;4.93;;
71046;SDS011;58703;48.978;8.982;2023-02-28T12:11:11;7.93;;;4.33;;
71046;SDS011;58703;48.978;8.982;2023-02-28T12:16:40;5.32;;;3.63;;
71046;SDS011;58703;48.978;8.982;2023-02-28T12:19:22;7.77;;;4.87;;
71046;SDS011;58703;48.978;8.982;2023-02-28T12:27:37;6.40;;;4.88;;
71046;SDS011;58703;48.978;8.982;2023-02-28T12:30:14;8.05;;;5.28;;
71046;SDS011;58703;48.978;8.982;2023-02-28T12:32:45;7.97;;;5.30;;
71046;SDS011;58703;48.978;8.982;2023-02-28T12:35:26;5.72;;;4.65;;
71046;SDS011;58703;48.978;8.982;2023-02-28T12:38:02;8.77;;;5.45;;
71046;SDS011;58703;48.978;8.982;2023-02-28T12:40:54;11.40;;;4.65;;
71046;SDS011;58703;48.978;8.982;2023-02-28T12:43:27;6.68;;;4.68;;
71046;SDS011;58703;48.978;8.982;2023-02-28T12:45:59;8.77;;;5.80;;
71046;SDS011;58703;48.978;8.982;2023-02-28T12:48:31;7.10;;;5.00;;
71046;SDS011;58703;48.978;8.982;2023-02-28T12:51:05;8.82;;;4.70;;
71046;SDS011;58703;48.978;8.982;2023-02-28T13:02:02;8.10;;;5.30;;
71046;SDS011;58703;48.978;8.982;2023-02-28T13:10:44;7.60;;;5.05;;
71046;SDS011;58703;48.978;8.982;2023-02-28T13:13:19;6.40;;;3.93;;
71046;SDS011;58703;48.978;8.982;2023-02-28T13:15:57;10.82;;;6.50;;
71046;SDS011;58703;48.978;8.982;2023-02-28T13:18:46;9.23;;;6.15;;
71046;SDS011;58703;48.978;8.982;2023-02-28T13:21:28;7.82;;;5.00;;
71046;SDS011;58703;48.978;8.982;2023-02-28T13:29:20;7.78;;;5.68;;
71046;SDS011;58703;48.978;8.982;2023-02-28T13:34:34;6.47;;;4.47;;
71046;SDS011;58703;48.978;8.982;2023-02-28T13:39:46;4.87;;;3.50;;
71046;SDS011;58703;48.978;8.982;2023-02-28T13:42:31;9.82;;;6.30;;
71046;SDS011;58703;48.978;8.982;2023-02-28T13:48:14;9.07;;;5.87;;
71046;SDS011;58703;48.978;8.982;2023-02-28T13:55:59;8.93;;;5.68;;
71046;SDS011;58703;48.978;8.982;2023-02-28T13:58:42;12.55;;;6.30;;
71046;SDS011;58703;48.978;8.982;2023-02-28T14:06:55;9.88;;;6.70;;
71046;SDS011;58703;48.978;8.982;2023-02-28T14:09:30;7.60;;;5.78;;
71046;SDS011;58703;48.978;8.982;2023-02-28T14:15:55;8.50;;;5.07;;
71046;SDS011;58703;48.978;8.982;2023-02-28T14:18:03;6.97;;;5.57;;
71046;SDS011;58703;48.978;8.982;2023-02-28T14:20:31;8.90;;;6.28;;
71046;SDS011;58703;48.978;8.982;2023-02-28T14:23:06;8.13;;;6.18;;
71046;SDS011;58703;48.978;8.982;2023-02-28T14:28:43;12.68;;;5.53;;
71046;SDS011;58703;48.978;8.982;2023-02-28T14:31:38;9.43;;;5.53;;
71046;SDS011;58703;48.978;8.982;2023-02-28T14:34:24;8.05;;;5.38;;
71046;SDS011;58703;48.978;8.982;2023-02-28T14:37:01;9.48;;;5.75;;
71046;SDS011;58703;48.978;8.982;2023-02-28T14:39:28;9.52;;;6.63;;
71046;SDS011;58703;48.978;8.982;2023-02-28T14:41:56;11.05;;;7.20;;
71046;SDS011;58703;48.978;8.982;2023-02-28T14:44:28;8.20;;;5.60;;
71046;SDS011;58703;48.978;8.982;2023-02-28T14:46:55;9.48;;;5.78;;
71046;SDS011;58703;48.978;8.982;2023-02-28T14:49:41;9.55;;;6.85;;
71046;SDS011;58703;48.978;8.982;2023-02-28T14:52:20;7.60;;;6.45;;
71046;SDS011;58703;48.978;8.982;2023-02-28T14:54:52;7.43;;;5.78;;
71046;SDS011;58703;48.978;8.982;2023-02-28T14:59:56;7.57;;;5.60;;
71046;SDS011;58703;48.978;8.982;2023-02-28T15:02:29;7.80;;;6.30;;
71046;SDS011;58703;48.978;8.982;2023-02-28T15:05:00;7.85;;;5.45;;
71046;SDS011;58703;48.978;8.982;2023-02-28T15:07:46;6.97;;;5.10;;
71046;SDS011;58703;48.978;8.982;2023-02-28T15:10:18;10.33;;;5.43;;
71046;SDS011;58703;48.978;8.982;2023-02-28T15:15:35;10.57;;;6.72;;
71046;SDS011;58703;48.978;8.982;2023-02-28T15:18:05;11.43;;;8.02;;
71046;SDS011;58703;48.978;8.982;2023-02-28T15:20:32;10.48;;;6.07;;
71046;SDS011;58703;48.978;8.982;2023-02-28T15:22:58;5.90;;;4.17;;
71046;SDS011;58703;48.978;8.982;2023-02-28T15:25:24;11.77;;;6.68;;
71046;SDS011;58703;48.978;8.982;2023-02-28T15:27:54;8.70;;;6.40;;
71046;SDS011;58703;48.978;8.982;2023-02-28T15:30:25;8.23;;;5.20;;
71046;SDS011;58703;48.978;8.982;2023-02-28T15:33:04;10.18;;;6.72;;
71046;SDS011;58703;48.978;8.982;2023-02-28T15:35:43;7.77;;;5.50;;
71046;SDS011;58703;48.978;8.982;2023-02-28T15:38:17;10.05;;;6.50;;
71046;SDS011;58703;48.978;8.982;2023-02-28T15:40:52;8.90;;;6.45;;
71046;SDS011;58703;48.978;8.982;2023-02-28T15:43:29;11.48;;;7.18;;
71046;SDS011;58703;48.978;8.982;2023-02-28T15:48:53;8.52;;;5.78;;
71046;SDS011;58703;48.978;8.982;2023-02-28T15:51:32;11.38;;;6.80;;
71046;SDS011;58703;48.978;8.982;2023-02-28T15:54:00;7.75;;;5.63;;
71046;SDS011;58703;48.978;8.982;2023-02-28T15:56:43;8.93;;;6.00;;
71046;SDS011;58703;48.978;8.982;2023-02-28T15:59:13;10.47;;;5.33;;
71046;SDS011;58703;48.978;8.982;2023-02-28T16:01:44;13.90;;;6.18;;
71046;SDS011;58703;48.978;8.982;2023-02-28T16:04:18;10.48;;;7.25;;
71046;SDS011;58703;48.978;8.982;2023-02-28T16:09:28;10.30;;;7.05;;
71046;SDS011;58703;48.978;8.982;2023-02-28T16:11:56;10.37;;;6.73;;
71046;SDS011;58703;48.978;8.982;2023-02-28T16:14:27;11.60;;;6.63;;
71046;SDS011;58703;48.978;8.982;2023-02-28T16:16:56;12.20;;;7.32;;
71046;SDS011;58703;48.978;8.982;2023-02-28T16:19:29;11.05;;;6.75;;
71046;SDS011;58703;48.978;8.982;2023-02-28T16:21:56;9.75;;;6.65;;
71046;SDS011;58703;48.978;8.982;2023-02-28T16:24:22;10.97;;;5.50;;
71046;SDS011;58703;48.978;8.982;2023-02-28T16:26:48;9.75;;;6.47;;
71046;SDS011;58703;48.978;8.982;2023-02-28T16:29:22;10.65;;;6.60;;
71046;SDS011;58703;48.978;8.982;2023-02-28T16:31:51;7.03;;;4.77;;
71046;SDS011;58703;48.978;8.982;2023-02-28T16:34:18;12.02;;;6.95;;
71046;SDS011;58703;48.978;8.982;2023-02-28T16:36:45;12.23;;;7.45;;
71046;SDS011;58703;48.978;8.982;2023-02-28T16:39:12;10.53;;;6.43;;
71046;SDS011;58703;48.978;8.982;2023-02-28T16:41:37;10.95;;;6.57;;
71046;SDS011;58703;48.978;8.982;2023-02-28T16:44:11;11.60;;;6.83;;
71046;SDS011;58703;48.978;8.982;2023-02-28T16:46:46;8.02;;;5.20;;
71046;SDS011;58703;48.978;8.982;2023-02-28T16:49:11;11.38;;;6.97;;
71046;SDS011;58703;48.978;8.982;2023-02-28T16:51:38;12.10;;;7.40;;
71046;SDS011;58703;48.978;8.982;2023-02-28T16:54:04;12.50;;;7.82;;
71046;SDS011;58703;48.978;8.982;2023-02-28T16:56:29;10.73;;;6.87;;
71046;SDS011;58703;48.978;8.982;2023-02-28T16:58:57;11.65;;;6.75;;
71046;SDS011;58703;48.978;8.982;2023-02-28T17:01:25;11.65;;;6.38;;
71046;SDS011;58703;48.978;8.982;2023-02-28T17:03:52;10.60;;;6.72;;
71046;SDS011;58703;48.978;8.982;2023-02-28T17:06:23;9.20;;;5.50;;
71046;SDS011;58703;48.978;8.982;2023-02-28T17:08:51;8.73;;;6.07;;
71046;SDS011;58703;48.978;8.982;2023-02-28T17:11:17;10.20;;;6.27;;
71046;SDS011;58703;48.978;8.982;2023-02-28T17:13:43;12.47;;;6.67;;
71046;SDS011;58703;48.978;8.982;2023-02-28T17:16:22;9.60;;;6.40;;
71046;SDS011;58703;48.978;8.982;2023-02-28T17:18:52;11.32;;;6.35;;
71046;SDS011;58703;48.978;8.982;2023-02-28T17:21:19;13.73;;;6.70;;
71046;SDS011;58703;48.978;8.982;2023-02-28T17:23:45;14.50;;;6.80;;
71046;SDS011;58703;48.978;8.982;2023-02-28T17:26:14;11.00;;;5.00;;
71046;SDS011;58703;48.978;8.982;2023-02-28T17:28:43;11.57;;;6.95;;
71046;SDS011;58703;48.978;8.982;2023-02-28T17:31:08;11.48;;;7.18;;